Fabre, Canada
Current Conditions -  °F | °C
As of 3:10 AM on Friday 31 Oct 2014 (Local Time) from CYXR Reporting Station
Light Snow Light Snow  
Wind Chill: 23°   Ceiling: 7000
Heat Index: 28°   Visibility: 9mi
Dew Point: 28°   Wind: 5mph
Humidity: 100%   Direction: 350°N
Pressure: 30.06"   Gusts: NA
Location:  47.2°N, 79.37°W
Report Text: CYXR 310710Z AUTO 35004KT 9SM -SN FEW016 BKN070 OVC089 M02/M02 A3006 RMK SLP192
Loading
Personal Weather Stations






























Interactive Weather Map New forecast layout! Learn more

10-Day Weather Forecast

Advertisements
Track Severe Weather on mobile